sensor_id;sensor_type;location;lat;lon;timestamp;pressure;altitude;pressure_sealevel;temperature;humidity
55315;BME280;41619;42.816;23.226;2023-03-20T00:00:30;95872.34;;;1.61;60.33
55315;BME280;41619;42.816;23.226;2023-03-20T00:02:56;95866.47;;;1.59;60.59
55315;BME280;41619;42.816;23.226;2023-03-20T00:05:23;95863.56;;;1.56;60.99
55315;BME280;41619;42.816;23.226;2023-03-20T00:07:49;95860.16;;;1.50;60.94
55315;BME280;41619;42.816;23.226;2023-03-20T00:10:16;95867.72;;;1.48;60.45
55315;BME280;41619;42.816;23.226;2023-03-20T00:12:44;95858.84;;;1.47;61.30
55315;BME280;41619;42.816;23.226;2023-03-20T00:17:48;95851.84;;;1.46;61.39
55315;BME280;41619;42.816;23.226;2023-03-20T00:20:14;95858.34;;;1.45;60.98
55315;BME280;41619;42.816;23.226;2023-03-20T00:22:40;95855.94;;;1.44;61.24
55315;BME280;41619;42.816;23.226;2023-03-20T00:25:06;95847.34;;;1.42;61.24
55315;BME280;41619;42.816;23.226;2023-03-20T00:27:31;95851.44;;;1.39;61.47
55315;BME280;41619;42.816;23.226;2023-03-20T00:29:57;95850.63;;;1.39;61.07
55315;BME280;41619;42.816;23.226;2023-03-20T00:32:23;95845.53;;;1.37;61.35
55315;BME280;41619;42.816;23.226;2023-03-20T00:34:48;95841.56;;;1.35;61.91
55315;BME280;41619;42.816;23.226;2023-03-20T00:37:14;95845.66;;;1.32;62.03
55315;BME280;41619;42.816;23.226;2023-03-20T00:39:40;95848.09;;;1.29;61.55
55315;BME280;41619;42.816;23.226;2023-03-20T00:42:06;95845.22;;;1.25;61.63
55315;BME280;41619;42.816;23.226;2023-03-20T00:44:36;95846.91;;;1.21;61.89
55315;BME280;41619;42.816;23.226;2023-03-20T00:47:18;95851.28;;;1.17;62.19
55315;BME280;41619;42.816;23.226;2023-03-20T00:49:46;95839.50;;;1.13;62.02
55315;BME280;41619;42.816;23.226;2023-03-20T00:52:18;95843.56;;;1.10;62.02
55315;BME280;41619;42.816;23.226;2023-03-20T00:54:43;95836.06;;;1.07;62.04
55315;BME280;41619;42.816;23.226;2023-03-20T00:57:16;95830.47;;;1.04;62.28
55315;BME280;41619;42.816;23.226;2023-03-20T00:59:55;95823.78;;;1.01;62.49
55315;BME280;41619;42.816;23.226;2023-03-20T01:02:25;95824.09;;;1.00;62.13
55315;BME280;41619;42.816;23.226;2023-03-20T01:04:51;95821.19;;;0.96;62.46
55315;BME280;41619;42.816;23.226;2023-03-20T01:07:16;95830.38;;;0.95;62.51
55315;BME280;41619;42.816;23.226;2023-03-20T01:09:42;95830.13;;;0.91;62.98
55315;BME280;41619;42.816;23.226;2023-03-20T01:12:10;95826.44;;;0.87;63.16
55315;BME280;41619;42.816;23.226;2023-03-20T01:14:36;95827.81;;;0.85;62.74
55315;BME280;41619;42.816;23.226;2023-03-20T01:17:02;95827.03;;;0.84;62.63
55315;BME280;41619;42.816;23.226;2023-03-20T01:19:27;95830.31;;;0.81;63.04
55315;BME280;41619;42.816;23.226;2023-03-20T01:21:52;95830.59;;;0.80;63.15
55315;BME280;41619;42.816;23.226;2023-03-20T01:24:18;95827.91;;;0.80;63.51
55315;BME280;41619;42.816;23.226;2023-03-20T01:26:44;95839.50;;;0.80;63.10
55315;BME280;41619;42.816;23.226;2023-03-20T01:29:25;95835.50;;;0.78;63.72
55315;BME280;41619;42.816;23.226;2023-03-20T01:31:52;95827.41;;;0.78;63.45
55315;BME280;41619;42.816;23.226;2023-03-20T01:34:18;95831.19;;;0.77;63.63
55315;BME280;41619;42.816;23.226;2023-03-20T01:36:47;95837.69;;;0.76;64.11
55315;BME280;41619;42.816;23.226;2023-03-20T01:39:14;95829.59;;;0.76;63.35
55315;BME280;41619;42.816;23.226;2023-03-20T01:41:40;95839.84;;;0.74;63.82
55315;BME280;41619;42.816;23.226;2023-03-20T01:44:17;95840.13;;;0.72;63.67
55315;BME280;41619;42.816;23.226;2023-03-20T01:46:43;95835.84;;;0.71;64.06
55315;BME280;41619;42.816;23.226;2023-03-20T01:51:44;95837.22;;;0.69;63.63
55315;BME280;41619;42.816;23.226;2023-03-20T01:54:29;95826.75;;;0.67;63.92
55315;BME280;41619;42.816;23.226;2023-03-20T01:57:06;95827.84;;;0.66;64.08
55315;BME280;41619;42.816;23.226;2023-03-20T01:59:38;95821.38;;;0.67;64.07
55315;BME280;41619;42.816;23.226;2023-03-20T02:02:07;95821.38;;;0.67;64.42
55315;BME280;41619;42.816;23.226;2023-03-20T02:04:36;95820.56;;;0.67;64.45
55315;BME280;41619;42.816;23.226;2023-03-20T02:07:04;95822.16;;;0.68;64.66
55315;BME280;41619;42.816;23.226;2023-03-20T02:09:31;95818.69;;;0.67;64.59
55315;BME280;41619;42.816;23.226;2023-03-20T02:11:57;95817.88;;;0.67;64.61
55315;BME280;41619;42.816;23.226;2023-03-20T02:14:23;95810.59;;;0.67;64.46
55315;BME280;41619;42.816;23.226;2023-03-20T02:16:49;95824.88;;;0.68;64.42
55315;BME280;41619;42.816;23.226;2023-03-20T02:36:18;95825.25;;;0.61;64.30
55315;BME280;41619;42.816;23.226;2023-03-20T02:44:42;95821.59;;;0.52;64.79
55315;BME280;41619;42.816;23.226;2023-03-20T02:47:15;95825.47;;;0.46;64.37
55315;BME280;41619;42.816;23.226;2023-03-20T02:55:40;95815.13;;;0.34;64.94
55315;BME280;41619;42.816;23.226;2023-03-20T02:58:21;95817.00;;;0.34;65.34
55315;BME280;41619;42.816;23.226;2023-03-20T03:05:53;95812.50;;;0.29;65.20
55315;BME280;41619;42.816;23.226;2023-03-20T03:08:22;95817.09;;;0.28;65.21
55315;BME280;41619;42.816;23.226;2023-03-20T03:10:52;95820.09;;;0.27;65.32
55315;BME280;41619;42.816;23.226;2023-03-20T03:13:23;95821.47;;;0.24;65.14
55315;BME280;41619;42.816;23.226;2023-03-20T03:15:53;95824.16;;;0.24;65.42
55315;BME280;41619;42.816;23.226;2023-03-20T03:18:22;95822.25;;;0.25;65.89
55315;BME280;41619;42.816;23.226;2023-03-20T03:20:53;95826.06;;;0.24;65.75
55315;BME280;41619;42.816;23.226;2023-03-20T03:23:31;95825.53;;;0.22;65.86
55315;BME280;41619;42.816;23.226;2023-03-20T03:26:00;95817.75;;;0.20;65.53
55315;BME280;41619;42.816;23.226;2023-03-20T03:28:32;95814.53;;;0.18;66.13
55315;BME280;41619;42.816;23.226;2023-03-20T03:31:10;95810.81;;;0.14;65.43
55315;BME280;41619;42.816;23.226;2023-03-20T03:33:38;95814.09;;;0.11;65.63
55315;BME280;41619;42.816;23.226;2023-03-20T03:36:07;95807.13;;;0.10;66.28
55315;BME280;41619;42.816;23.226;2023-03-20T03:39:09;95815.19;;;0.10;65.65
55315;BME280;41619;42.816;23.226;2023-03-20T03:41:40;95820.88;;;0.09;65.66
55315;BME280;41619;42.816;23.226;2023-03-20T03:49:22;95821.97;;;0.08;66.46
55315;BME280;41619;42.816;23.226;2023-03-20T03:51:50;95817.16;;;0.05;66.30
55315;BME280;41619;42.816;23.226;2023-03-20T03:54:21;95818.47;;;0.07;66.19
55315;BME280;41619;42.816;23.226;2023-03-20T03:56:48;95811.50;;;0.06;66.55
55315;BME280;41619;42.816;23.226;2023-03-20T03:59:26;95809.88;;;0.05;66.24
55315;BME280;41619;42.816;23.226;2023-03-20T04:01:55;95807.50;;;0.04;66.09
55315;BME280;41619;42.816;23.226;2023-03-20T04:04:23;95802.09;;;0.04;66.69
55315;BME280;41619;42.816;23.226;2023-03-20T04:06:50;95799.91;;;0.06;66.22
55315;BME280;41619;42.816;23.226;2023-03-20T04:09:15;95797.44;;;0.09;66.30
55315;BME280;41619;42.816;23.226;2023-03-20T04:11:41;95805.00;;;0.07;66.38
55315;BME280;41619;42.816;23.226;2023-03-20T04:14:07;95806.41;;;0.05;66.54
55315;BME280;41619;42.816;23.226;2023-03-20T04:16:32;95810.97;;;0.04;66.65
55315;BME280;41619;42.816;23.226;2023-03-20T04:18:58;95806.97;;;0.02;66.29
55315;BME280;41619;42.816;23.226;2023-03-20T04:21:23;95809.13;;;-0.01;66.56
55315;BME280;41619;42.816;23.226;2023-03-20T04:23:49;95801.06;;;-0.01;66.43
55315;BME280;41619;42.816;23.226;2023-03-20T04:26:14;95801.06;;;-0.01;66.68
55315;BME280;41619;42.816;23.226;2023-03-20T04:28:40;95807.53;;;-0.02;66.67
55315;BME280;41619;42.816;23.226;2023-03-20T04:31:05;95810.50;;;-0.03;66.69
55315;BME280;41619;42.816;23.226;2023-03-20T04:33:31;95808.91;;;-0.04;66.78
55315;BME280;41619;42.816;23.226;2023-03-20T04:35:56;95802.72;;;-0.05;67.00
55315;BME280;41619;42.816;23.226;2023-03-20T04:38:22;95813.50;;;-0.05;67.28
55315;BME280;41619;42.816;23.226;2023-03-20T04:40:48;95797.34;;;-0.05;66.82
55315;BME280;41619;42.816;23.226;2023-03-20T04:43:14;95807.81;;;-0.03;67.09
55315;BME280;41619;42.816;23.226;2023-03-20T04:45:40;95810.22;;;-0.02;66.60
55315;BME280;41619;42.816;23.226;2023-03-20T04:48:06;95818.06;;;-0.05;67.27
55315;BME280;41619;42.816;23.226;2023-03-20T04:50:32;95826.72;;;-0.08;66.81
55315;BME280;41619;42.816;23.226;2023-03-20T04:52:57;95820.34;;;-0.12;66.86
55315;BME280;41619;42.816;23.226;2023-03-20T04:55:23;95830.28;;;-0.13;67.14
55315;BME280;41619;42.816;23.226;2023-03-20T04:57:49;95834.06;;;-0.14;66.94
55315;BME280;41619;42.816;23.226;2023-03-20T05:00:15;95832.19;;;-0.13;66.99
55315;BME280;41619;42.816;23.226;2023-03-20T05:02:40;95837.78;;;-0.10;67.49
55315;BME280;41619;42.816;23.226;2023-03-20T05:05:06;95843.09;;;-0.05;67.18
55315;BME280;41619;42.816;23.226;2023-03-20T05:07:32;95843.09;;;-0.05;67.10
55315;BME280;41619;42.816;23.226;2023-03-20T05:09:57;95838.22;;;-0.03;67.03
55315;BME280;41619;42.816;23.226;2023-03-20T05:12:23;95849.47;;;0.05;67.43
55315;BME280;41619;42.816;23.226;2023-03-20T05:14:49;95839.19;;;0.07;67.31
55315;BME280;41619;42.816;23.226;2023-03-20T05:17:15;95853.88;;;0.14;66.92
55315;BME280;41619;42.816;23.226;2023-03-20T05:19:42;95846.78;;;0.23;67.12
55315;BME280;41619;42.816;23.226;2023-03-20T05:22:08;95851.00;;;0.29;67.33
55315;BME280;41619;42.816;23.226;2023-03-20T05:24:34;95850.63;;;0.36;66.98
55315;BME280;41619;42.816;23.226;2023-03-20T05:27:00;95853.50;;;0.45;67.25
55315;BME280;41619;42.816;23.226;2023-03-20T05:29:25;95853.63;;;0.53;67.08
55315;BME280;41619;42.816;23.226;2023-03-20T05:31:50;95853.28;;;0.60;66.79
55315;BME280;41619;42.816;23.226;2023-03-20T05:34:16;95853.59;;;0.72;67.04
55315;BME280;41619;42.816;23.226;2023-03-20T05:36:41;95853.97;;;0.84;66.75
55315;BME280;41619;42.816;23.226;2023-03-20T05:39:06;95855.13;;;0.97;66.71
55315;BME280;41619;42.816;23.226;2023-03-20T05:41:32;95853.56;;;1.10;66.61
55315;BME280;41619;42.816;23.226;2023-03-20T05:43:57;95855.19;;;1.25;66.13
55315;BME280;41619;42.816;23.226;2023-03-20T05:46:23;95855.72;;;1.40;66.21
55315;BME280;41619;42.816;23.226;2023-03-20T05:48:48;95850.88;;;1.56;66.01
55315;BME280;41619;42.816;23.226;2023-03-20T05:51:13;95853.47;;;1.75;66.16
55315;BME280;41619;42.816;23.226;2023-03-20T05:53:39;95856.19;;;1.89;65.56
55315;BME280;41619;42.816;23.226;2023-03-20T05:56:05;95853.78;;;2.01;65.34
55315;BME280;41619;42.816;23.226;2023-03-20T05:58:30;95852.19;;;2.13;65.35
55315;BME280;41619;42.816;23.226;2023-03-20T06:00:56;95855.66;;;2.28;65.32
55315;BME280;41619;42.816;23.226;2023-03-20T06:03:22;95852.66;;;2.43;65.13
55315;BME280;41619;42.816;23.226;2023-03-20T06:05:47;95853.88;;;2.59;65.21
55315;BME280;41619;42.816;23.226;2023-03-20T06:08:13;95855.53;;;2.83;64.73
55315;BME280;41619;42.816;23.226;2023-03-20T06:10:39;95852.03;;;3.04;64.53
55315;BME280;41619;42.816;23.226;2023-03-20T06:13:05;95851.84;;;3.23;64.23
55315;BME280;41619;42.816;23.226;2023-03-20T06:15:30;95850.03;;;3.41;64.40
55315;BME280;41619;42.816;23.226;2023-03-20T06:17:56;95852.38;;;3.56;63.95
55315;BME280;41619;42.816;23.226;2023-03-20T06:20:22;95850.06;;;3.72;63.91
55315;BME280;41619;42.816;23.226;2023-03-20T06:22:47;95851.41;;;3.92;63.70
55315;BME280;41619;42.816;23.226;2023-03-20T06:25:13;95847.94;;;4.09;63.67
55315;BME280;41619;42.816;23.226;2023-03-20T06:27:38;95830.81;;;4.31;63.44
55315;BME280;41619;42.816;23.226;2023-03-20T06:30:04;95828.28;;;4.60;62.98
55315;BME280;41619;42.816;23.226;2023-03-20T06:32:30;95833.72;;;4.95;62.47
55315;BME280;41619;42.816;23.226;2023-03-20T06:34:56;95820.94;;;5.21;62.04
55315;BME280;41619;42.816;23.226;2023-03-20T06:37:21;95822.34;;;5.44;61.86
55315;BME280;41619;42.816;23.226;2023-03-20T06:39:47;95826.75;;;5.58;61.09
55315;BME280;41619;42.816;23.226;2023-03-20T06:42:12;95836.75;;;5.74;61.17
55315;BME280;41619;42.816;23.226;2023-03-20T06:44:38;95833.53;;;5.98;61.22
55315;BME280;41619;42.816;23.226;2023-03-20T06:47:04;95834.84;;;6.22;60.34
55315;BME280;41619;42.816;23.226;2023-03-20T06:49:30;95841.97;;;6.35;60.67
55315;BME280;41619;42.816;23.226;2023-03-20T06:51:55;95846.31;;;6.57;60.44
55315;BME280;41619;42.816;23.226;2023-03-20T06:54:21;95842.97;;;6.81;60.87
55315;BME280;41619;42.816;23.226;2023-03-20T06:56:46;95839.84;;;6.91;59.98
55315;BME280;41619;42.816;23.226;2023-03-20T06:59:11;95827.28;;;6.98;59.72
55315;BME280;41619;42.816;23.226;2023-03-20T07:01:37;95841.88;;;7.15;59.23
55315;BME280;41619;42.816;23.226;2023-03-20T07:04:02;95830.97;;;7.36;58.61
55315;BME280;41619;42.816;23.226;2023-03-20T07:06:28;95829.78;;;7.57;58.84
55315;BME280;41619;42.816;23.226;2023-03-20T07:08:54;95823.38;;;7.86;58.55
55315;BME280;41619;42.816;23.226;2023-03-20T07:11:20;95821.81;;;8.10;58.57
55315;BME280;41619;42.816;23.226;2023-03-20T07:13:46;95829.22;;;8.46;57.85
55315;BME280;41619;42.816;23.226;2023-03-20T07:16:12;95828.28;;;8.78;57.28
55315;BME280;41619;42.816;23.226;2023-03-20T07:18:37;95830.25;;;9.06;57.34
55315;BME280;41619;42.816;23.226;2023-03-20T07:21:04;95826.16;;;9.28;57.10
55315;BME280;41619;42.816;23.226;2023-03-20T07:23:31;95825.03;;;9.57;56.47
55315;BME280;41619;42.816;23.226;2023-03-20T07:25:57;95822.06;;;9.78;56.16
55315;BME280;41619;42.816;23.226;2023-03-20T07:28:23;95821.38;;;9.96;55.70
55315;BME280;41619;42.816;23.226;2023-03-20T07:30:48;95818.66;;;10.12;55.42
55315;BME280;41619;42.816;23.226;2023-03-20T07:33:14;95826.44;;;10.42;54.67
55315;BME280;41619;42.816;23.226;2023-03-20T07:35:39;95824.31;;;10.86;54.93
55315;BME280;41619;42.816;23.226;2023-03-20T07:38:05;95827.00;;;11.79;54.09
55315;BME280;41619;42.816;23.226;2023-03-20T07:40:31;95818.47;;;13.36;52.16
55315;BME280;41619;42.816;23.226;2023-03-20T07:42:57;95807.41;;;15.02;49.35
55315;BME280;41619;42.816;23.226;2023-03-20T07:45:22;95814.97;;;16.42;46.77
55315;BME280;41619;42.816;23.226;2023-03-20T07:47:48;95816.75;;;17.59;44.60
55315;BME280;41619;42.816;23.226;2023-03-20T07:50:13;95804.47;;;18.88;42.42
55315;BME280;41619;42.816;23.226;2023-03-20T07:52:39;95811.34;;;19.86;40.20
55315;BME280;41619;42.816;23.226;2023-03-20T07:55:05;95804.41;;;20.55;38.70
55315;BME280;41619;42.816;23.226;2023-03-20T07:57:31;95804.78;;;21.04;38.63
55315;BME280;41619;42.816;23.226;2023-03-20T07:59:57;95801.91;;;21.90;37.52
55315;BME280;41619;42.816;23.226;2023-03-20T08:02:22;95800.19;;;22.69;36.17
55315;BME280;41619;42.816;23.226;2023-03-20T08:04:48;95795.97;;;23.25;34.55
55315;BME280;41619;42.816;23.226;2023-03-20T08:07:13;95796.75;;;23.84;34.17
55315;BME280;41619;42.816;23.226;2023-03-20T08:09:39;95791.00;;;24.80;32.39
55315;BME280;41619;42.816;23.226;2023-03-20T08:12:04;95783.44;;;25.50;31.53
55315;BME280;41619;42.816;23.226;2023-03-20T08:14:30;95781.88;;;26.14;29.78
55315;BME280;41619;42.816;23.226;2023-03-20T08:16:56;95780.59;;;26.37;28.83
55315;BME280;41619;42.816;23.226;2023-03-20T08:19:22;95785.28;;;26.40;28.24
55315;BME280;41619;42.816;23.226;2023-03-20T08:21:48;95781.56;;;26.43;28.71
55315;BME280;41619;42.816;23.226;2023-03-20T08:24:14;95787.50;;;26.45;29.03
55315;BME280;41619;42.816;23.226;2023-03-20T08:26:39;95786.19;;;26.77;28.82
55315;BME280;41619;42.816;23.226;2023-03-20T08:29:05;95782.13;;;27.19;28.66
55315;BME280;41619;42.816;23.226;2023-03-20T08:31:31;95780.13;;;27.65;28.03
55315;BME280;41619;42.816;23.226;2023-03-20T08:33:57;95786.63;;;28.08;27.48
55315;BME280;41619;42.816;23.226;2023-03-20T08:36:22;95779.09;;;28.98;26.27
55315;BME280;41619;42.816;23.226;2023-03-20T08:38:48;95784.84;;;29.75;25.32
55315;BME280;41619;42.816;23.226;2023-03-20T08:41:15;95775.75;;;30.39;23.96
55315;BME280;41619;42.816;23.226;2023-03-20T08:43:40;95765.97;;;31.05;23.02
55315;BME280;41619;42.816;23.226;2023-03-20T08:46:06;95764.16;;;31.63;21.62
55315;BME280;41619;42.816;23.226;2023-03-20T08:48:37;95768.09;;;32.17;20.25
55315;BME280;41619;42.816;23.226;2023-03-20T08:51:03;95764.91;;;32.62;20.40
55315;BME280;41619;42.816;23.226;2023-03-20T08:53:29;95760.91;;;32.79;20.34
55315;BME280;41619;42.816;23.226;2023-03-20T08:55:54;95761.34;;;33.09;20.67
55315;BME280;41619;42.816;23.226;2023-03-20T08:58:21;95761.28;;;33.47;19.53
55315;BME280;41619;42.816;23.226;2023-03-20T09:00:47;95762.63;;;33.51;18.79
55315;BME280;41619;42.816;23.226;2023-03-20T09:03:14;95751.94;;;33.29;19.22
55315;BME280;41619;42.816;23.226;2023-03-20T09:05:45;95752.41;;;33.22;18.60
55315;BME280;41619;42.816;23.226;2023-03-20T09:08:11;95743.75;;;33.37;18.02
55315;BME280;41619;42.816;23.226;2023-03-20T09:10:37;95745.34;;;33.06;18.10
55315;BME280;41619;42.816;23.226;2023-03-20T09:13:02;95738.38;;;33.02;17.75
55315;BME280;41619;42.816;23.226;2023-03-20T09:15:28;95741.84;;;33.23;17.11
55315;BME280;41619;42.816;23.226;2023-03-20T09:17:53;95737.59;;;33.50;17.26
55315;BME280;41619;42.816;23.226;2023-03-20T09:20:19;95738.13;;;33.48;17.10
55315;BME280;41619;42.816;23.226;2023-03-20T09:22:45;95727.13;;;33.19;17.21
55315;BME280;41619;42.816;23.226;2023-03-20T09:25:11;95730.25;;;33.26;17.73
55315;BME280;41619;42.816;23.226;2023-03-20T09:27:37;95718.63;;;33.89;17.32
55315;BME280;41619;42.816;23.226;2023-03-20T09:30:04;95726.84;;;33.82;16.77
55315;BME280;41619;42.816;23.226;2023-03-20T09:32:30;95714.06;;;33.32;16.71
55315;BME280;41619;42.816;23.226;2023-03-20T09:34:55;95710.72;;;33.39;16.52
55315;BME280;41619;42.816;23.226;2023-03-20T09:37:21;95707.81;;;33.23;16.51
55315;BME280;41619;42.816;23.226;2023-03-20T09:39:46;95698.84;;;32.44;16.59
55315;BME280;41619;42.816;23.226;2023-03-20T09:42:24;95695.38;;;30.90;17.60
55315;BME280;41619;42.816;23.226;2023-03-20T09:50:37;95679.59;;;29.84;18.76
55315;BME280;41619;42.816;23.226;2023-03-20T09:53:10;95671.22;;;30.54;18.99
55315;BME280;41619;42.816;23.226;2023-03-20T09:55:40;95667.19;;;31.37;17.76
55315;BME280;41619;42.816;23.226;2023-03-20T09:58:30;95660.66;;;31.77;17.30
55315;BME280;41619;42.816;23.226;2023-03-20T10:00:59;95654.69;;;32.27;17.14
55315;BME280;41619;42.816;23.226;2023-03-20T10:03:55;95652.88;;;32.72;16.55
55315;BME280;41619;42.816;23.226;2023-03-20T10:06:22;95654.88;;;32.97;16.73
55315;BME280;41619;42.816;23.226;2023-03-20T10:08:48;95644.44;;;33.37;16.14
55315;BME280;41619;42.816;23.226;2023-03-20T10:22:06;95628.31;;;33.93;15.37
55315;BME280;41619;42.816;23.226;2023-03-20T10:24:48;95618.75;;;34.36;15.17
55315;BME280;41619;42.816;23.226;2023-03-20T10:27:23;95614.31;;;34.35;15.21
55315;BME280;41619;42.816;23.226;2023-03-20T10:35:12;95591.13;;;33.75;14.95
55315;BME280;41619;42.816;23.226;2023-03-20T10:37:59;95594.47;;;33.73;14.88
55315;BME280;41619;42.816;23.226;2023-03-20T10:40:31;95589.28;;;33.55;14.73
55315;BME280;41619;42.816;23.226;2023-03-20T10:43:19;95592.66;;;33.53;15.17
55315;BME280;41619;42.816;23.226;2023-03-20T10:45:48;95584.31;;;33.16;15.32
55315;BME280;41619;42.816;23.226;2023-03-20T10:48:22;95587.59;;;32.92;15.17
55315;BME280;41619;42.816;23.226;2023-03-20T10:50:58;95578.38;;;33.14;15.00
55315;BME280;41619;42.816;23.226;2023-03-20T10:53:29;95576.41;;;33.76;15.03
55315;BME280;41619;42.816;23.226;2023-03-20T10:55:58;95574.28;;;34.49;14.16
55315;BME280;41619;42.816;23.226;2023-03-20T10:58:27;95562.38;;;34.62;13.49
55315;BME280;41619;42.816;23.226;2023-03-20T11:00:54;95557.47;;;34.63;13.08
55315;BME280;41619;42.816;23.226;2023-03-20T11:03:24;95560.81;;;34.55;13.13
55315;BME280;41619;42.816;23.226;2023-03-20T11:05:54;95558.19;;;34.69;12.80
55315;BME280;41619;42.816;23.226;2023-03-20T11:08:30;95550.59;;;34.99;12.44
55315;BME280;41619;42.816;23.226;2023-03-20T11:11:00;95548.91;;;34.68;11.99
55315;BME280;41619;42.816;23.226;2023-03-20T11:15:54;95542.78;;;32.48;12.58
55315;BME280;41619;42.816;23.226;2023-03-20T11:18:23;95534.38;;;30.96;13.40
55315;BME280;41619;42.816;23.226;2023-03-20T11:20:56;95535.88;;;29.45;14.58
55315;BME280;41619;42.816;23.226;2023-03-20T11:23:48;95527.75;;;28.17;15.74
55315;BME280;41619;42.816;23.226;2023-03-20T11:26:18;95521.56;;;27.28;16.00
55315;BME280;41619;42.816;23.226;2023-03-20T11:28:50;95524.03;;;26.66;16.56
55315;BME280;41619;42.816;23.226;2023-03-20T11:31:40;95517.28;;;26.17;16.63
55315;BME280;41619;42.816;23.226;2023-03-20T11:36:32;95507.78;;;25.65;17.20
55315;BME280;41619;42.816;23.226;2023-03-20T11:39:14;95497.91;;;25.43;17.58
55315;BME280;41619;42.816;23.226;2023-03-20T11:41:51;95492.28;;;25.33;18.12
55315;BME280;41619;42.816;23.226;2023-03-20T11:49:24;95482.19;;;24.83;18.12
55315;BME280;41619;42.816;23.226;2023-03-20T11:51:52;95486.19;;;24.73;17.75
55315;BME280;41619;42.816;23.226;2023-03-20T11:54:21;95477.41;;;24.62;18.42
55315;BME280;41619;42.816;23.226;2023-03-20T11:56:54;95469.84;;;24.50;17.88
55315;BME280;41619;42.816;23.226;2023-03-20T11:59:20;95466.38;;;24.36;18.56
55315;BME280;41619;42.816;23.226;2023-03-20T12:01:51;95457.84;;;24.27;18.43
55315;BME280;41619;42.816;23.226;2023-03-20T12:04:20;95463.25;;;24.22;18.47
55315;BME280;41619;42.816;23.226;2023-03-20T12:06:56;95453.09;;;24.15;18.68
55315;BME280;41619;42.816;23.226;2023-03-20T12:09:32;95444.72;;;24.15;18.37
55315;BME280;41619;42.816;23.226;2023-03-20T12:14:53;95443.00;;;23.96;18.34
55315;BME280;41619;42.816;23.226;2023-03-20T12:17:39;95430.97;;;23.86;18.12
55315;BME280;41619;42.816;23.226;2023-03-20T12:22:39;95437.38;;;23.74;18.81
55315;BME280;41619;42.816;23.226;2023-03-20T12:25:27;95438.28;;;23.71;18.82
55315;BME280;41619;42.816;23.226;2023-03-20T12:28:04;95438.34;;;23.80;18.59
55315;BME280;41619;42.816;23.226;2023-03-20T12:35:57;95426.56;;;23.98;18.71
55315;BME280;41619;42.816;23.226;2023-03-20T12:38:27;95423.53;;;24.05;18.94
55315;BME280;41619;42.816;23.226;2023-03-20T12:40:59;95421.63;;;24.02;18.60
55315;BME280;41619;42.816;23.226;2023-03-20T12:43:38;95415.75;;;23.87;19.07
55315;BME280;41619;42.816;23.226;2023-03-20T12:46:29;95405.06;;;23.73;19.11
55315;BME280;41619;42.816;23.226;2023-03-20T12:49:51;95404.94;;;23.76;19.16
55315;BME280;41619;42.816;23.226;2023-03-20T12:57:20;95395.56;;;23.83;19.12
55315;BME280;41619;42.816;23.226;2023-03-20T13:00:21;95390.94;;;23.89;19.22
55315;BME280;41619;42.816;23.226;2023-03-20T13:18:57;95363.75;;;23.55;18.79
55315;BME280;41619;42.816;23.226;2023-03-20T13:21:32;95350.97;;;23.45;18.82
55315;BME280;41619;42.816;23.226;2023-03-20T13:26:53;95347.22;;;23.26;19.31
55315;BME280;41619;42.816;23.226;2023-03-20T13:29:41;95343.44;;;23.07;19.26
55315;BME280;41619;42.816;23.226;2023-03-20T13:40:00;95344.09;;;22.22;19.94
55315;BME280;41619;42.816;23.226;2023-03-20T13:42:36;95332.56;;;22.08;19.73
55315;BME280;41619;42.816;23.226;2023-03-20T13:45:06;95338.09;;;21.95;19.78
55315;BME280;41619;42.816;23.226;2023-03-20T13:47:38;95331.59;;;21.85;19.93
55315;BME280;41619;42.816;23.226;2023-03-20T13:50:13;95328.59;;;21.80;19.68
55315;BME280;41619;42.816;23.226;2023-03-20T13:52:48;95328.09;;;21.68;19.71
55315;BME280;41619;42.816;23.226;2023-03-20T13:59:16;95328.63;;;21.63;19.58
55315;BME280;41619;42.816;23.226;2023-03-20T14:01:42;95318.03;;;21.58;19.46
55315;BME280;41619;42.816;23.226;2023-03-20T14:04:12;95316.03;;;21.59;19.69
55315;BME280;41619;42.816;23.226;2023-03-20T14:06:44;95307.31;;;21.57;19.38
55315;BME280;41619;42.816;23.226;2023-03-20T14:09:28;95305.88;;;21.52;19.41
55315;BME280;41619;42.816;23.226;2023-03-20T14:11:59;95305.19;;;21.48;19.58
55315;BME280;41619;42.816;23.226;2023-03-20T14:14:29;95288.59;;;21.44;20.05
55315;BME280;41619;42.816;23.226;2023-03-20T14:17:06;95294.59;;;21.43;20.17
55315;BME280;41619;42.816;23.226;2023-03-20T14:19:35;95295.47;;;21.40;20.37
55315;BME280;41619;42.816;23.226;2023-03-20T14:22:02;95289.66;;;21.34;20.31
55315;BME280;41619;42.816;23.226;2023-03-20T14:24:28;95285.63;;;21.35;20.28
55315;BME280;41619;42.816;23.226;2023-03-20T14:26:56;95288.09;;;21.33;19.87
55315;BME280;41619;42.816;23.226;2023-03-20T14:32:03;95285.31;;;21.17;19.91
55315;BME280;41619;42.816;23.226;2023-03-20T14:34:57;95289.84;;;21.11;19.69
55315;BME280;41619;42.816;23.226;2023-03-20T14:37:32;95282.13;;;21.02;20.42
55315;BME280;41619;42.816;23.226;2023-03-20T14:42:35;95280.25;;;20.83;20.67
55315;BME280;41619;42.816;23.226;2023-03-20T14:48:23;95282.06;;;20.57;20.71
55315;BME280;41619;42.816;23.226;2023-03-20T14:53:30;95278.91;;;20.39;21.27
55315;BME280;41619;42.816;23.226;2023-03-20T15:01:10;95274.50;;;20.05;22.95
55315;BME280;41619;42.816;23.226;2023-03-20T15:03:39;95272.75;;;19.95;22.91
55315;BME280;41619;42.816;23.226;2023-03-20T15:06:06;95272.63;;;19.82;23.34
55315;BME280;41619;42.816;23.226;2023-03-20T15:08:36;95274.06;;;19.71;22.97
55315;BME280;41619;42.816;23.226;2023-03-20T15:11:08;95274.28;;;19.60;22.61
55315;BME280;41619;42.816;23.226;2023-03-20T15:13:36;95277.59;;;19.51;22.50
55315;BME280;41619;42.816;23.226;2023-03-20T15:16:07;95274.63;;;19.42;22.69
55315;BME280;41619;42.816;23.226;2023-03-20T15:18:46;95277.53;;;19.35;22.78
55315;BME280;41619;42.816;23.226;2023-03-20T15:21:36;95271.75;;;19.26;23.61
55315;BME280;41619;42.816;23.226;2023-03-20T15:24:03;95267.22;;;19.16;23.93